createdAt,value
2018-03-17T00:00:46.720Z,996.95
2018-03-17T00:01:46.732Z,996.94
2018-03-17T00:02:46.743Z,996.93
2018-03-17T00:03:46.754Z,996.91
2018-03-17T00:04:46.781Z,996.93
2018-03-17T00:05:46.776Z,996.98
2018-03-17T00:06:46.785Z,996.99
2018-03-17T00:07:46.794Z,996.97
2018-03-17T00:08:46.815Z,996.97
2018-03-17T00:09:46.816Z,997.04
2018-03-17T00:10:46.827Z,997.03
2018-03-17T00:11:46.837Z,997.02
2018-03-17T00:12:46.848Z,996.99
2018-03-17T00:13:46.864Z,997.03
2018-03-17T00:14:46.869Z,996.93
2018-03-17T00:15:46.881Z,996.9
2018-03-17T00:16:46.891Z,996.94
2018-03-17T00:17:46.901Z,996.98
2018-03-17T00:18:46.912Z,996.99
2018-03-17T00:19:46.925Z,996.96
2018-03-17T00:20:46.934Z,996.98
2018-03-17T00:21:46.945Z,997.02
2018-03-17T00:22:46.991Z,997.02
2018-03-17T00:23:46.965Z,996.98
2018-03-17T00:24:46.979Z,997
2018-03-17T00:25:46.986Z,997.04
2018-03-17T00:26:46.998Z,996.95
2018-03-17T00:27:47.008Z,996.99
2018-03-17T00:28:47.018Z,996.99
2018-03-17T00:29:47.030Z,996.96
2018-03-17T00:30:47.043Z,996.99
2018-03-17T00:31:47.049Z,997.01
2018-03-17T00:32:47.060Z,997.01
2018-03-17T00:33:47.072Z,997.02
2018-03-17T00:34:47.084Z,997.01
2018-03-17T00:35:47.097Z,996.97
2018-03-17T00:36:47.102Z,997.04
2018-03-17T00:37:47.113Z,996.96
2018-03-17T00:38:47.124Z,997.01
2018-03-17T00:39:47.136Z,996.96
2018-03-17T00:40:47.145Z,997
2018-03-17T00:41:47.156Z,997.01
2018-03-17T00:42:47.166Z,997.07
2018-03-17T00:43:47.179Z,997.08
2018-03-17T00:44:47.188Z,997.08
2018-03-17T00:45:47.199Z,997.1
2018-03-17T00:46:47.209Z,997.11
2018-03-17T00:47:47.239Z,997.11
2018-03-17T00:48:47.230Z,997.12
2018-03-17T00:49:47.295Z,997.1
2018-03-17T00:50:47.252Z,997.07
2018-03-17T00:51:47.263Z,997.12
2018-03-17T00:52:47.274Z,997.12
2018-03-17T00:53:47.283Z,997.1
2018-03-17T00:54:47.294Z,997.11
2018-03-17T00:55:47.305Z,997.1
2018-03-17T00:56:47.316Z,997.1
2018-03-17T00:57:47.326Z,997.1
2018-03-17T00:58:47.337Z,997.15
2018-03-17T00:59:47.347Z,997.14
2018-03-17T01:00:47.361Z,997.16
2018-03-17T01:01:47.367Z,997.15
2018-03-17T01:02:47.381Z,997.1
2018-03-17T01:03:47.391Z,997.14
2018-03-17T01:04:47.399Z,997.1
2018-03-17T01:05:47.411Z,997.11
2018-03-17T01:06:47.423Z,997.08
2018-03-17T01:07:47.435Z,997.14
2018-03-17T01:08:47.443Z,997.09
2018-03-17T01:09:47.452Z,997.16
2018-03-17T01:10:47.466Z,997.16
2018-03-17T01:11:47.475Z,997.14
2018-03-17T01:12:47.486Z,997.15
2018-03-17T01:13:47.500Z,997.17
2018-03-17T01:14:47.507Z,997.18
2018-03-17T01:15:47.516Z,997.21
2018-03-17T01:16:47.528Z,997.17
2018-03-17T01:17:47.540Z,997.18
2018-03-17T01:18:47.549Z,997.25
2018-03-17T01:19:47.559Z,997.23
2018-03-17T01:20:47.577Z,997.16
2018-03-17T01:21:47.583Z,997.2
2018-03-17T01:22:47.595Z,997.22
2018-03-17T01:23:47.603Z,997.22
2018-03-17T01:24:47.613Z,997.22
2018-03-17T01:25:47.625Z,997.27
2018-03-17T01:26:47.634Z,997.27
2018-03-17T01:27:47.680Z,997.26
2018-03-17T01:28:47.655Z,997.26
2018-03-17T01:29:47.666Z,997.21
2018-03-17T01:30:47.675Z,997.35
2018-03-17T01:31:47.685Z,997.28
2018-03-17T01:32:47.697Z,997.33
2018-03-17T01:33:47.706Z,997.31
2018-03-17T01:34:47.718Z,997.26
2018-03-17T01:35:47.728Z,997.26
2018-03-17T01:36:47.739Z,997.21
2018-03-17T01:37:47.750Z,997.25
2018-03-17T01:38:47.760Z,997.19
2018-03-17T01:39:47.772Z,997.25
2018-03-17T01:40:47.783Z,997.21
2018-03-17T01:41:47.791Z,997.25
2018-03-17T01:42:47.802Z,997.28
2018-03-17T01:43:47.814Z,997.26
2018-03-17T01:44:47.822Z,997.29
2018-03-17T01:45:47.838Z,997.31
2018-03-17T01:46:47.845Z,997.29
2018-03-17T01:47:47.855Z,997.26
2018-03-17T01:48:47.864Z,997.28
2018-03-17T01:49:47.876Z,997.28
2018-03-17T01:50:47.887Z,997.3
2018-03-17T01:51:47.901Z,997.33
2018-03-17T01:52:47.910Z,997.31
2018-03-17T01:53:47.920Z,997.37
2018-03-17T01:54:47.929Z,997.36
2018-03-17T01:55:47.942Z,997.36
2018-03-17T01:56:47.953Z,997.31
2018-03-17T01:57:47.979Z,997.32
2018-03-17T01:58:47.971Z,997.31
2018-03-17T01:59:47.981Z,997.36
2018-03-17T02:00:47.992Z,997.33
2018-03-17T02:01:48.003Z,997.3
2018-03-17T02:02:48.016Z,997.35
2018-03-17T02:03:48.023Z,997.26
2018-03-17T02:04:48.034Z,997.32
2018-03-17T02:05:48.046Z,997.28
2018-03-17T02:06:48.055Z,997.25
2018-03-17T02:07:48.065Z,997.3
2018-03-17T02:08:48.075Z,997.22
2018-03-17T02:09:48.086Z,997.26
2018-03-17T02:10:48.098Z,997.14
2018-03-17T02:11:48.107Z,997.14
2018-03-17T02:12:48.117Z,997.15
2018-03-17T02:13:48.134Z,997.14
2018-03-17T02:14:48.142Z,997.15
2018-03-17T02:15:48.149Z,997.1
2018-03-17T02:16:48.163Z,997.14
2018-03-17T02:17:48.169Z,997.12
2018-03-17T02:18:48.180Z,997.11
2018-03-17T02:19:48.191Z,997.15
2018-03-17T02:20:48.202Z,997.15
2018-03-17T02:21:48.211Z,996.99
2018-03-17T02:22:48.223Z,997.08
2018-03-17T02:23:48.235Z,997.06
2018-03-17T02:24:48.249Z,996.95
2018-03-17T02:25:48.256Z,997.01
2018-03-17T02:26:48.265Z,997.07
2018-03-17T02:27:48.275Z,996.97
2018-03-17T02:28:48.285Z,997.01
2018-03-17T02:29:48.300Z,996.99
2018-03-17T02:30:48.307Z,996.99
2018-03-17T02:31:48.318Z,997
2018-03-17T02:32:48.326Z,997.01
2018-03-17T02:33:48.338Z,996.99
2018-03-17T02:34:48.350Z,996.95
2018-03-17T02:35:48.359Z,997.01
2018-03-17T02:36:48.368Z,996.98
2018-03-17T02:37:48.380Z,997.03
2018-03-17T02:38:48.390Z,996.97
2018-03-17T02:39:48.400Z,997.03
2018-03-17T02:40:48.411Z,997.05
2018-03-17T02:41:48.420Z,997.07
2018-03-17T02:42:48.434Z,997.07
2018-03-17T02:43:48.443Z,997.07
2018-03-17T02:44:48.451Z,997.12
2018-03-17T02:45:48.463Z,997.08
2018-03-17T02:46:48.475Z,997.08
2018-03-17T02:47:48.485Z,997.13
2018-03-17T02:48:48.496Z,997.05
2018-03-17T02:49:48.508Z,997.12
2018-03-17T02:50:48.520Z,997.05
2018-03-17T02:51:48.527Z,997.08
2018-03-17T02:52:48.537Z,997.11
2018-03-17T02:53:48.549Z,997.16
2018-03-17T02:54:48.557Z,997.16
2018-03-17T02:55:48.569Z,997.2
2018-03-17T02:56:48.585Z,997.19
2018-03-17T02:57:48.588Z,997.19
2018-03-17T02:58:48.601Z,997.23
2018-03-17T02:59:48.610Z,997.32
2018-03-17T03:00:48.620Z,997.29
2018-03-17T03:01:48.630Z,997.37
2018-03-17T03:02:48.641Z,997.26
2018-03-17T03:03:48.652Z,997.29
2018-03-17T03:04:48.664Z,997.26
2018-03-17T03:05:48.701Z,997.19
2018-03-17T03:06:48.682Z,997.32
2018-03-17T03:07:48.692Z,997.4
2018-03-17T03:08:48.703Z,997.38
2018-03-17T03:09:48.713Z,997.33
2018-03-17T03:10:48.723Z,997.4
2018-03-17T03:11:48.739Z,997.47
2018-03-17T03:12:48.744Z,997.41
2018-03-17T03:13:48.755Z,997.44
2018-03-17T03:14:48.765Z,997.43
2018-03-17T03:15:48.776Z,997.47
2018-03-17T03:16:48.785Z,997.48
2018-03-17T03:17:48.796Z,997.5
2018-03-17T03:18:48.807Z,997.47
2018-03-17T03:19:48.815Z,997.45
2018-03-17T03:20:48.832Z,997.51
2018-03-17T03:21:48.837Z,997.49
2018-03-17T03:22:48.848Z,997.51
2018-03-17T03:23:48.858Z,997.55
2018-03-17T03:24:48.869Z,997.48
2018-03-17T03:25:48.879Z,997.5
2018-03-17T03:26:48.891Z,997.47
2018-03-17T03:27:48.899Z,997.55
2018-03-17T03:28:48.909Z,997.5
2018-03-17T03:29:48.920Z,997.53
2018-03-17T03:30:48.930Z,997.51
2018-03-17T03:31:48.940Z,997.52
2018-03-17T03:32:48.951Z,997.45
2018-03-17T03:33:48.961Z,997.51
2018-03-17T03:34:48.975Z,997.48
2018-03-17T03:35:48.982Z,997.52
2018-03-17T03:36:48.993Z,997.55
2018-03-17T03:37:49.003Z,997.49
2018-03-17T03:38:49.014Z,997.44
2018-03-17T03:39:49.024Z,997.56
2018-03-17T03:40:49.035Z,997.5
2018-03-17T03:41:49.044Z,997.42
2018-03-17T03:42:49.055Z,997.52
2018-03-17T03:43:49.065Z,997.48
2018-03-17T03:44:49.076Z,997.54
2018-03-17T03:45:49.085Z,997.45
2018-03-17T03:46:49.097Z,997.52
2018-03-17T03:47:49.105Z,997.51
2018-03-17T03:48:49.191Z,997.52
2018-03-17T03:49:49.202Z,997.49
2018-03-17T03:50:49.175Z,997.48
2018-03-17T03:51:49.193Z,997.52
2018-03-17T03:52:49.197Z,997.48
2018-03-17T03:53:49.206Z,997.52
2018-03-17T03:54:49.223Z,997.5
2018-03-17T03:55:49.236Z,997.45
2018-03-17T03:56:49.285Z,997.41
2018-03-17T03:57:49.299Z,997.5
2018-03-17T03:58:49.318Z,997.51
2018-03-17T03:59:49.290Z,997.55
2018-03-17T04:00:49.240Z,997.45
2018-03-17T04:01:49.249Z,997.45
2018-03-17T04:02:49.260Z,997.42
2018-03-17T04:03:49.272Z,997.39
2018-03-17T04:04:49.283Z,997.4
2018-03-17T04:05:49.291Z,997.41
2018-03-17T04:06:49.301Z,997.42
2018-03-17T04:07:49.311Z,997.4
2018-03-17T04:08:49.323Z,997.41
2018-03-17T04:09:49.333Z,997.37
2018-03-17T04:10:49.344Z,997.41
2018-03-17T04:11:49.355Z,997.41
2018-03-17T04:12:49.363Z,997.46
2018-03-17T04:13:49.373Z,997.45
2018-03-17T04:14:49.381Z,997.46
2018-03-17T04:15:49.394Z,997.52
2018-03-17T04:16:49.403Z,997.44
2018-03-17T04:17:49.414Z,997.45
2018-03-17T04:18:49.423Z,997.4
2018-03-17T04:19:49.433Z,997.41
2018-03-17T04:20:49.445Z,997.43
2018-03-17T04:21:49.454Z,997.37
2018-03-17T04:22:49.465Z,997.46
2018-03-17T04:23:49.477Z,997.51
2018-03-17T04:24:49.487Z,997.47
2018-03-17T04:25:49.495Z,997.44
2018-03-17T04:26:49.506Z,997.35
2018-03-17T04:27:49.517Z,997.54
2018-03-17T04:28:49.527Z,997.52
2018-03-17T04:29:49.539Z,997.51
2018-03-17T04:30:49.552Z,997.57
2018-03-17T04:31:49.557Z,997.57
2018-03-17T04:32:49.568Z,997.62
2018-03-17T04:33:49.578Z,997.67
2018-03-17T04:34:49.588Z,997.66
2018-03-17T04:35:49.598Z,997.65
2018-03-17T04:36:49.608Z,997.51
2018-03-17T04:37:49.624Z,997.59
2018-03-17T04:38:49.629Z,997.67
2018-03-17T04:39:49.643Z,997.61
2018-03-17T04:40:49.652Z,997.52
2018-03-17T04:41:49.658Z,997.58
2018-03-17T04:42:49.670Z,997.54
2018-03-17T04:43:49.682Z,997.55
2018-03-17T04:44:49.689Z,997.59
2018-03-17T04:45:49.700Z,997.56
2018-03-17T04:46:49.712Z,997.5
2018-03-17T04:47:49.722Z,997.57
2018-03-17T04:48:49.739Z,997.53
2018-03-17T04:49:49.743Z,997.49
2018-03-17T04:50:49.753Z,997.57
2018-03-17T04:51:49.760Z,997.54
2018-03-17T04:52:49.771Z,997.57
2018-03-17T04:53:49.781Z,997.57
2018-03-17T04:54:49.791Z,997.6
2018-03-17T04:55:49.800Z,997.63
2018-03-17T04:56:49.810Z,997.6
2018-03-17T04:57:49.822Z,997.59
2018-03-17T04:58:49.832Z,997.64
2018-03-17T04:59:49.843Z,997.6
2018-03-17T05:00:49.863Z,997.66
2018-03-17T05:01:49.863Z,997.72
2018-03-17T05:02:49.871Z,997.77
2018-03-17T05:03:49.882Z,997.76
2018-03-17T05:04:49.895Z,997.79
2018-03-17T05:05:49.902Z,997.79
2018-03-17T05:06:49.915Z,997.75
2018-03-17T05:07:49.924Z,997.73
2018-03-17T05:08:49.934Z,997.79
2018-03-17T05:09:49.951Z,997.73
2018-03-17T05:10:49.954Z,997.79
2018-03-17T05:11:49.968Z,997.77
2018-03-17T05:12:49.975Z,997.81
2018-03-17T05:13:49.984Z,997.89
2018-03-17T05:14:50.000Z,997.88
2018-03-17T05:15:50.005Z,997.86
2018-03-17T05:16:50.014Z,997.91
2018-03-17T05:17:50.026Z,997.91
2018-03-17T05:18:50.034Z,997.9
2018-03-17T05:19:50.081Z,997.95
2018-03-17T05:20:50.053Z,997.88
2018-03-17T05:21:50.126Z,997.89
2018-03-17T05:22:50.078Z,997.92
2018-03-17T05:23:50.087Z,997.98
2018-03-17T05:24:50.095Z,997.8
2018-03-17T05:25:50.106Z,997.95
2018-03-17T05:26:50.118Z,997.88
2018-03-17T05:27:50.124Z,997.92
2018-03-17T05:28:50.137Z,997.91
2018-03-17T05:29:50.146Z,997.88
2018-03-17T05:30:50.156Z,997.92
2018-03-17T05:31:50.218Z,997.96
2018-03-17T05:32:50.176Z,997.97
2018-03-17T05:33:50.189Z,997.93
2018-03-17T05:34:50.199Z,997.94
2018-03-17T05:35:50.208Z,998
2018-03-17T05:36:50.220Z,997.95
2018-03-17T05:37:50.230Z,997.98
2018-03-17T05:38:50.236Z,997.95
2018-03-17T05:39:50.248Z,998.01
2018-03-17T05:40:50.257Z,997.97
2018-03-17T05:41:50.318Z,998.03
2018-03-17T05:42:50.276Z,998.02
2018-03-17T05:43:50.287Z,998.06
2018-03-17T05:44:50.297Z,998.04
2018-03-17T05:45:50.308Z,998.03
2018-03-17T05:46:50.367Z,998.05
2018-03-17T05:47:50.328Z,998.04
2018-03-17T05:48:50.339Z,998.02
2018-03-17T05:49:50.346Z,998.01
2018-03-17T05:50:50.358Z,997.99
2018-03-17T05:51:50.417Z,998.01
2018-03-17T05:52:50.377Z,998.02
2018-03-17T05:53:50.387Z,998.04
2018-03-17T05:54:50.397Z,998.01
2018-03-17T05:55:50.407Z,997.93
2018-03-17T05:56:50.471Z,997.98
2018-03-17T05:57:50.428Z,998.02
2018-03-17T05:58:50.438Z,998
2018-03-17T05:59:50.450Z,997.96
2018-03-17T06:00:50.458Z,998.04
2018-03-17T06:01:50.469Z,998.06
2018-03-17T06:02:50.479Z,998.05
2018-03-17T06:03:50.490Z,998.07
2018-03-17T06:04:50.498Z,998.05
2018-03-17T06:05:50.512Z,998.05
2018-03-17T06:06:50.520Z,998.16
2018-03-17T06:07:50.528Z,998.14
2018-03-17T06:08:50.544Z,998.13
2018-03-17T06:09:50.551Z,998.11
2018-03-17T06:10:50.559Z,998.12
2018-03-17T06:11:50.569Z,998.14
2018-03-17T06:12:50.582Z,998.09
2018-03-17T06:13:50.591Z,998.1
2018-03-17T06:14:50.600Z,998.14
2018-03-17T06:15:50.610Z,998.18
2018-03-17T06:16:50.619Z,998.09
2018-03-17T06:17:50.629Z,998.1
2018-03-17T06:18:50.640Z,998.15
2018-03-17T06:19:50.650Z,998.15
2018-03-17T06:20:50.661Z,998.19
2018-03-17T06:21:50.670Z,998.18
2018-03-17T06:22:50.679Z,998.17
2018-03-17T06:23:50.692Z,998.12
2018-03-17T06:24:50.701Z,998.15
2018-03-17T06:25:50.711Z,998.2
2018-03-17T06:26:50.736Z,998.11
2018-03-17T06:27:50.933Z,998.2
2018-03-17T06:28:50.740Z,998.16
2018-03-17T06:29:50.749Z,998.19
2018-03-17T06:30:50.799Z,998.19
2018-03-17T06:31:50.781Z,998.21
2018-03-17T06:32:50.781Z,998.19
2018-03-17T06:33:50.790Z,998.22
2018-03-17T06:34:50.811Z,998.21
2018-03-17T06:35:50.810Z,998.27
2018-03-17T06:36:50.828Z,998.21
2018-03-17T06:37:50.832Z,998.17
2018-03-17T06:38:50.840Z,998.21
2018-03-17T06:39:50.854Z,998.21
2018-03-17T06:40:50.860Z,998.23
2018-03-17T06:41:50.870Z,998.26
2018-03-17T06:42:50.881Z,998.21
2018-03-17T06:43:50.892Z,998.25
2018-03-17T06:44:50.900Z,998.23
2018-03-17T06:45:50.910Z,998.2
2018-03-17T06:46:50.921Z,998.21
2018-03-17T06:47:50.981Z,998.25
2018-03-17T06:48:50.941Z,998.23
2018-03-17T06:49:50.963Z,998.15
2018-03-17T06:50:50.962Z,998.11
2018-03-17T06:51:50.971Z,998.18
2018-03-17T06:52:50.981Z,998.16
2018-03-17T06:53:50.992Z,998.17
2018-03-17T06:54:51.003Z,998.2
2018-03-17T06:55:51.011Z,998.13
2018-03-17T06:56:51.022Z,998.2
2018-03-17T06:57:51.030Z,998.18
2018-03-17T06:58:51.041Z,998.2
2018-03-17T06:59:51.056Z,998.22
2018-03-17T07:00:51.067Z,998.21
2018-03-17T07:01:51.074Z,998.21
2018-03-17T07:02:51.082Z,998.23
2018-03-17T07:03:51.091Z,998.27
2018-03-17T07:04:51.100Z,998.27
2018-03-17T07:05:51.112Z,998.28
2018-03-17T07:06:51.122Z,998.32
2018-03-17T07:07:51.132Z,998.34
2018-03-17T07:08:51.149Z,998.36
2018-03-17T07:09:51.152Z,998.33
2018-03-17T07:10:51.161Z,998.37
2018-03-17T07:11:51.170Z,998.34
2018-03-17T07:12:51.183Z,998.19
2018-03-17T07:13:51.191Z,998.33
2018-03-17T07:14:51.200Z,998.35
2018-03-17T07:15:51.217Z,998.34
2018-03-17T07:16:51.222Z,998.34
2018-03-17T07:17:51.234Z,998.19
2018-03-17T07:18:51.242Z,998.3
2018-03-17T07:19:51.259Z,998.33
2018-03-17T07:20:51.274Z,998.29
2018-03-17T07:21:51.270Z,998.42
2018-03-17T07:22:51.282Z,998.34
2018-03-17T07:23:51.297Z,998.36
2018-03-17T07:24:51.300Z,998.36
2018-03-17T07:25:51.312Z,998.35
2018-03-17T07:26:51.324Z,998.33
2018-03-17T07:27:51.332Z,998.35
2018-03-17T07:28:51.341Z,998.38
2018-03-17T07:29:51.351Z,998.31
2018-03-17T07:30:51.360Z,998.4
2018-03-17T07:31:51.372Z,998.39
2018-03-17T07:32:51.383Z,998.36
2018-03-17T07:33:51.393Z,998.4
2018-03-17T07:34:51.403Z,998.37
2018-03-17T07:35:51.411Z,998.41
2018-03-17T07:36:51.423Z,998.3
2018-03-17T07:37:51.473Z,998.36
2018-03-17T07:38:51.443Z,998.39
2018-03-17T07:39:51.453Z,998.38
2018-03-17T07:40:51.463Z,998.41
2018-03-17T07:41:51.472Z,998.31
2018-03-17T07:42:51.481Z,998.37
2018-03-17T07:43:51.493Z,998.4
2018-03-17T07:44:51.504Z,998.34
2018-03-17T07:45:51.512Z,998.39
2018-03-17T07:46:51.522Z,998.41
2018-03-17T07:47:51.532Z,998.36
2018-03-17T07:48:51.542Z,998.42
2018-03-17T07:49:51.552Z,998.39
2018-03-17T07:50:51.562Z,998.41
2018-03-17T07:51:51.572Z,998.38
2018-03-17T07:52:51.584Z,998.43
2018-03-17T07:53:51.591Z,998.4
2018-03-17T07:54:51.601Z,998.37
2018-03-17T07:55:51.611Z,998.37
2018-03-17T07:56:51.620Z,998.38
2018-03-17T07:57:51.630Z,998.42
2018-03-17T07:58:51.641Z,998.35
2018-03-17T07:59:51.651Z,998.3
2018-03-17T08:00:51.672Z,998.35
2018-03-17T08:01:51.671Z,998.34
2018-03-17T08:02:51.680Z,998.42
2018-03-17T08:03:51.692Z,998.36
2018-03-17T08:04:51.700Z,998.32
2018-03-17T08:05:51.716Z,998.35
2018-03-17T08:06:51.721Z,998.37
2018-03-17T08:07:51.738Z,998.3
2018-03-17T08:08:51.772Z,998.34
2018-03-17T08:09:51.750Z,998.3
2018-03-17T08:10:51.761Z,998.27
2018-03-17T08:11:51.771Z,998.26
2018-03-17T08:12:51.780Z,998.3
2018-03-17T08:13:51.791Z,998.29
2018-03-17T08:14:51.802Z,998.25
2018-03-17T08:15:51.809Z,998.26
2018-03-17T08:16:51.821Z,998.28
2018-03-17T08:17:51.832Z,998.25
2018-03-17T08:18:51.840Z,998.33
2018-03-17T08:19:51.849Z,998.27
2018-03-17T08:20:51.860Z,998.34
2018-03-17T08:21:51.870Z,998.32
2018-03-17T08:22:51.881Z,998.27
2018-03-17T08:23:51.889Z,998.31
2018-03-17T08:24:51.899Z,998.34
2018-03-17T08:25:51.916Z,998.34
2018-03-17T08:26:51.920Z,998.43
2018-03-17T08:27:51.929Z,998.32
2018-03-17T08:28:51.939Z,998.29
2018-03-17T08:29:51.952Z,998.31
2018-03-17T08:30:51.959Z,998.37
2018-03-17T08:31:51.976Z,998.31
2018-03-17T08:32:51.979Z,998.35
2018-03-17T08:33:51.993Z,998.35
2018-03-17T08:34:51.999Z,998.36
2018-03-17T08:35:52.009Z,998.31
2018-03-17T08:36:52.020Z,998.42
2018-03-17T08:37:52.029Z,998.42
2018-03-17T08:38:52.039Z,998.44
2018-03-17T08:39:52.050Z,998.35
2018-03-17T08:40:52.059Z,998.38
2018-03-17T08:41:52.069Z,998.46
2018-03-17T08:42:52.078Z,998.44
2018-03-17T08:43:52.090Z,998.4
2018-03-17T08:44:52.100Z,998.41
2018-03-17T08:45:52.141Z,998.4
2018-03-17T08:46:52.118Z,998.4
2018-03-17T08:47:52.129Z,998.42
2018-03-17T08:48:52.138Z,998.46
2018-03-17T08:49:52.149Z,998.45
2018-03-17T08:50:52.163Z,998.44
2018-03-17T08:51:52.168Z,998.45
2018-03-17T08:52:52.179Z,998.41
2018-03-17T08:53:52.189Z,998.47
2018-03-17T08:54:52.198Z,998.53
2018-03-17T08:55:52.209Z,998.41
2018-03-17T08:56:52.219Z,998.45
2018-03-17T08:57:52.271Z,998.49
2018-03-17T08:58:52.324Z,998.43
2018-03-17T08:59:52.259Z,998.4
2018-03-17T09:00:52.260Z,998.35
2018-03-17T09:01:52.268Z,998.37
2018-03-17T09:02:52.278Z,998.39
2018-03-17T09:03:52.289Z,998.41
2018-03-17T09:04:52.303Z,998.4
2018-03-17T09:05:52.314Z,998.31
2018-03-17T09:06:52.323Z,998.31
2018-03-17T09:07:52.328Z,998.31
2018-03-17T09:08:52.340Z,998.32
2018-03-17T09:09:52.352Z,998.32
2018-03-17T09:10:52.377Z,998.3
2018-03-17T09:11:52.369Z,998.34
2018-03-17T09:12:52.382Z,998.24
2018-03-17T09:13:52.393Z,998.22
2018-03-17T09:14:52.397Z,998.22
2018-03-17T09:15:52.408Z,998.21
2018-03-17T09:16:52.419Z,998.12
2018-03-17T09:17:52.434Z,998.29
2018-03-17T09:18:52.438Z,998.19
2018-03-17T09:19:52.448Z,998.17
2018-03-17T09:20:52.459Z,998.12
2018-03-17T09:21:52.468Z,998.07
2018-03-17T09:22:52.480Z,998.18
2018-03-17T09:23:52.488Z,998.2
2018-03-17T09:24:52.501Z,998.12
2018-03-17T09:25:52.509Z,998.2
2018-03-17T09:26:52.518Z,998.27
2018-03-17T09:27:52.529Z,998.16
2018-03-17T09:28:52.537Z,998.22
2018-03-17T09:29:52.551Z,998.17
2018-03-17T09:30:52.558Z,998.23
2018-03-17T09:31:52.567Z,998.24
2018-03-17T09:32:52.577Z,998.18
2018-03-17T09:33:52.595Z,998.2
2018-03-17T09:34:52.648Z,998.22
2018-03-17T09:35:52.611Z,998.25
2018-03-17T09:36:52.617Z,998.22
2018-03-17T09:37:52.626Z,998.25
2018-03-17T09:38:52.641Z,998.33
2018-03-17T09:39:52.699Z,998.15
2018-03-17T09:40:52.663Z,998.18
2018-03-17T09:41:52.668Z,998.32
2018-03-17T09:42:52.677Z,998.19
2018-03-17T09:43:52.687Z,998.22
2018-03-17T09:44:52.696Z,998.23
2018-03-17T09:45:52.706Z,998.32
2018-03-17T09:46:52.716Z,998.21
2018-03-17T09:47:52.726Z,998.26
2018-03-17T09:48:52.734Z,998.29
2018-03-17T09:49:52.746Z,998.31
2018-03-17T09:50:52.755Z,998.3
2018-03-17T09:51:52.764Z,998.3
2018-03-17T09:52:52.774Z,998.18
2018-03-17T09:53:52.785Z,998.27
2018-03-17T09:54:52.844Z,998.26
2018-03-17T09:55:52.805Z,998.26
2018-03-17T09:56:52.817Z,998.26
2018-03-17T09:57:52.825Z,998.29
2018-03-17T09:58:52.834Z,998.29
2018-03-17T09:59:52.843Z,998.32
2018-03-17T10:00:52.855Z,998.32
2018-03-17T10:01:52.869Z,998.31
2018-03-17T10:02:52.875Z,998.29
2018-03-17T10:03:52.884Z,998.29
2018-03-17T10:04:52.922Z,998.3
2018-03-17T10:05:52.903Z,998.28
2018-03-17T10:06:52.913Z,998.29
2018-03-17T10:07:52.924Z,998.27
2018-03-17T10:08:52.935Z,998.36
2018-03-17T10:09:52.945Z,998.31
2018-03-17T10:10:52.951Z,998.25
2018-03-17T10:11:52.962Z,998.38
2018-03-17T10:12:52.989Z,998.29
2018-03-17T10:13:52.981Z,998.42
2018-03-17T10:14:52.992Z,998.46
2018-03-17T10:15:53.006Z,998.38
2018-03-17T10:16:53.011Z,998.43
2018-03-17T10:17:53.019Z,998.38
2018-03-17T10:18:53.030Z,998.39
2018-03-17T10:19:53.040Z,998.47
2018-03-17T10:20:53.054Z,998.43
2018-03-17T10:21:53.067Z,998.42
2018-03-17T10:22:53.126Z,998.45
2018-03-17T10:23:53.085Z,998.45
2018-03-17T10:24:53.088Z,998.46
2018-03-17T10:25:53.099Z,998.42
2018-03-17T10:26:53.110Z,998.46
2018-03-17T10:27:53.120Z,998.48
2018-03-17T10:28:53.128Z,998.43
2018-03-17T10:29:53.138Z,998.45
2018-03-17T10:30:53.152Z,998.42
2018-03-17T10:31:53.163Z,998.43
2018-03-17T10:32:53.167Z,998.32
2018-03-17T10:33:53.179Z,998.45
2018-03-17T10:34:53.188Z,998.39
2018-03-17T10:35:53.198Z,998.32
2018-03-17T10:36:53.208Z,998.4
2018-03-17T10:37:53.225Z,998.38
2018-03-17T10:38:53.227Z,998.36
2018-03-17T10:39:53.241Z,998.37
2018-03-17T10:40:53.248Z,998.38
2018-03-17T10:41:53.259Z,998.46
2018-03-17T10:42:53.268Z,998.35
2018-03-17T10:43:53.279Z,998.39
2018-03-17T10:44:53.288Z,998.38
2018-03-17T10:45:53.297Z,998.34
2018-03-17T10:46:53.308Z,998.4
2018-03-17T10:47:53.335Z,998.32
2018-03-17T10:48:53.326Z,998.32
2018-03-17T10:49:53.337Z,998.38
2018-03-17T10:50:53.347Z,998.3
2018-03-17T10:51:53.356Z,998.34
2018-03-17T10:52:53.368Z,998.26
2018-03-17T10:53:53.376Z,998.26
2018-03-17T10:54:53.387Z,998.27
2018-03-17T10:55:53.447Z,998.27
2018-03-17T10:56:53.406Z,998.31
2018-03-17T10:57:53.418Z,998.33
2018-03-17T10:58:53.426Z,998.31
2018-03-17T10:59:53.437Z,998.28
2018-03-17T11:00:53.451Z,998.25
2018-03-17T11:01:53.455Z,998.27
2018-03-17T11:02:53.466Z,998.24
2018-03-17T11:03:53.473Z,998.21
2018-03-17T11:04:53.485Z,998.18
2018-03-17T11:05:53.587Z,998.19
2018-03-17T11:06:53.511Z,998.1
2018-03-17T11:07:53.516Z,998.14
2018-03-17T11:08:53.525Z,998.13
2018-03-17T11:09:53.535Z,998.05
2018-03-17T11:10:53.545Z,998.09
2018-03-17T11:11:53.553Z,998.08
2018-03-17T11:12:53.563Z,998.11
2018-03-17T11:13:53.573Z,998.15
2018-03-17T11:14:53.582Z,998.18
2018-03-17T11:15:53.596Z,998.07
2018-03-17T11:16:53.654Z,998.15
2018-03-17T11:17:53.613Z,998.14
2018-03-17T11:18:53.622Z,998.12
2018-03-17T11:19:53.632Z,998.14
2018-03-17T11:20:53.643Z,998.15
2018-03-17T11:21:53.653Z,998.11
2018-03-17T11:22:53.757Z,998.15
2018-03-17T11:23:53.677Z,998.14
2018-03-17T11:24:53.683Z,998.21
2018-03-17T11:25:53.690Z,998.28
2018-03-17T11:26:53.701Z,998.24
2018-03-17T11:27:53.711Z,998.21
2018-03-17T11:28:53.721Z,998.16
2018-03-17T11:29:53.730Z,998.2
2018-03-17T11:30:53.743Z,998.14
2018-03-17T11:31:53.751Z,998.21
2018-03-17T11:32:53.767Z,998.17
2018-03-17T11:33:53.814Z,998.26
2018-03-17T11:34:53.781Z,998.08
2018-03-17T11:35:53.789Z,998.17
2018-03-17T11:36:53.800Z,998.18
2018-03-17T11:37:53.809Z,998.24
2018-03-17T11:38:53.820Z,998.22
2018-03-17T11:39:53.829Z,998.16
2018-03-17T11:40:53.839Z,998.17
2018-03-17T11:41:53.850Z,998.2
2018-03-17T11:42:53.860Z,998.17
2018-03-17T11:43:53.869Z,998.2
2018-03-17T11:44:53.879Z,998.22
2018-03-17T11:45:53.888Z,998.21
2018-03-17T11:46:53.900Z,998.26
2018-03-17T11:47:53.911Z,998.3
2018-03-17T11:48:53.919Z,998.26
2018-03-17T11:49:53.928Z,998.25
2018-03-17T11:50:53.939Z,998.23
2018-03-17T11:51:53.946Z,998.22
2018-03-17T11:52:53.958Z,998.14
2018-03-17T11:53:53.967Z,998.12
2018-03-17T11:54:53.978Z,998.11
2018-03-17T11:55:53.991Z,998.05
2018-03-17T11:56:53.998Z,998.06
2018-03-17T11:57:54.007Z,998.04
2018-03-17T11:58:54.017Z,998.11
2018-03-17T11:59:54.026Z,998.12
2018-03-17T12:00:54.044Z,998.04
2018-03-17T12:01:54.048Z,998.02
2018-03-17T12:02:54.109Z,998.04
2018-03-17T12:03:54.067Z,998.02
2018-03-17T12:04:54.076Z,997.98
2018-03-17T12:05:54.087Z,998.1
2018-03-17T12:06:54.097Z,998.13
2018-03-17T12:07:54.106Z,998.07
2018-03-17T12:08:54.117Z,998.11
2018-03-17T12:09:54.126Z,998.07
2018-03-17T12:10:54.136Z,997.99
2018-03-17T12:11:54.146Z,998.02
2018-03-17T12:12:54.156Z,998.01
2018-03-17T12:13:54.165Z,998.02
2018-03-17T12:14:54.176Z,998.03
2018-03-17T12:15:54.185Z,997.98
2018-03-17T12:16:54.221Z,997.96
2018-03-17T12:17:54.211Z,998.02
2018-03-17T12:18:54.227Z,998
2018-03-17T12:19:54.227Z,997.94
2018-03-17T12:20:54.236Z,998.01
2018-03-17T12:21:54.246Z,997.99
2018-03-17T12:22:54.258Z,997.98
2018-03-17T12:23:54.266Z,997.96
2018-03-17T12:24:54.276Z,998.04
2018-03-17T12:25:54.296Z,998.06
2018-03-17T12:26:54.295Z,998.04
2018-03-17T12:27:54.315Z,998
2018-03-17T12:28:54.315Z,998.02
2018-03-17T12:29:54.325Z,998.08
2018-03-17T12:30:54.335Z,998.02
2018-03-17T12:31:54.346Z,998.05